Gravelly, Arkansas
Current Conditions -  °F | °C
As of 2:53 PM on Friday 19 Dec 2014 (Local Time) from KMWT Reporting Station
Overcast Overcast  
Wind Chill:   Ceiling: 800
Heat Index:   Visibility: 10mi
Dew Point:   Wind: 3mph
Humidity: 89%   Direction: 90°E
Pressure: 30.15"   Gusts: NA
Location:  34.88°N, 93.69°W
Report Text: KMWT 192053Z AUTO 09003KT 10SM OVC008 06/04 A3015 RMK AO2 SLP217 T00610044 55010
Loading
Personal Weather Stations






























Interactive Weather Map New forecast layout! Learn more

10-Day Weather Forecast

Advertisements
Track Severe Weather on mobile